sensor_id;sensor_type;location;lat;lon;timestamp;temperature;humidity
18906;DHT22;9585;51.018;4.282;2022-07-18T00:01:05;15.50;99.90
18906;DHT22;9585;51.018;4.282;2022-07-18T00:03:32;15.40;99.90
18906;DHT22;9585;51.018;4.282;2022-07-18T00:06:00;15.40;99.90
18906;DHT22;9585;51.018;4.282;2022-07-18T00:08:27;15.40;99.90
18906;DHT22;9585;51.018;4.282;2022-07-18T00:10:54;15.40;99.90
18906;DHT22;9585;51.018;4.282;2022-07-18T00:13:22;15.30;99.90
18906;DHT22;9585;51.018;4.282;2022-07-18T00:15:51;15.30;99.90
18906;DHT22;9585;51.018;4.282;2022-07-18T00:18:18;15.30;99.90
18906;DHT22;9585;51.018;4.282;2022-07-18T00:20:45;15.30;99.90
18906;DHT22;9585;51.018;4.282;2022-07-18T00:23:13;15.40;99.90
18906;DHT22;9585;51.018;4.282;2022-07-18T00:25:40;15.30;99.90
18906;DHT22;9585;51.018;4.282;2022-07-18T00:28:07;15.30;99.90
18906;DHT22;9585;51.018;4.282;2022-07-18T00:30:37;15.30;99.90
18906;DHT22;9585;51.018;4.282;2022-07-18T00:33:07;15.20;99.90
18906;DHT22;9585;51.018;4.282;2022-07-18T00:35:35;15.20;99.90
18906;DHT22;9585;51.018;4.282;2022-07-18T00:38:02;15.20;99.90
18906;DHT22;9585;51.018;4.282;2022-07-18T00:40:30;15.20;99.90
18906;DHT22;9585;51.018;4.282;2022-07-18T00:42:57;15.10;99.90
18906;DHT22;9585;51.018;4.282;2022-07-18T00:45:25;15.10;99.90
18906;DHT22;9585;51.018;4.282;2022-07-18T00:47:52;15.10;99.90
18906;DHT22;9585;51.018;4.282;2022-07-18T00:50:22;15.00;99.90
18906;DHT22;9585;51.018;4.282;2022-07-18T00:52:50;15.00;99.90
18906;DHT22;9585;51.018;4.282;2022-07-18T00:55:17;14.90;99.90
18906;DHT22;9585;51.018;4.282;2022-07-18T00:57:45;14.80;99.90
18906;DHT22;9585;51.018;4.282;2022-07-18T01:00:14;14.70;99.90
18906;DHT22;9585;51.018;4.282;2022-07-18T01:02:59;14.60;99.90
18906;DHT22;9585;51.018;4.282;2022-07-18T01:05:28;14.50;99.90
18906;DHT22;9585;51.018;4.282;2022-07-18T01:07:55;14.50;99.90
18906;DHT22;9585;51.018;4.282;2022-07-18T01:10:23;14.50;99.90
18906;DHT22;9585;51.018;4.282;2022-07-18T01:12:50;14.50;99.90
18906;DHT22;9585;51.018;4.282;2022-07-18T01:15:17;14.50;99.90
18906;DHT22;9585;51.018;4.282;2022-07-18T01:17:45;14.50;99.90
18906;DHT22;9585;51.018;4.282;2022-07-18T01:20:12;14.40;99.90
18906;DHT22;9585;51.018;4.282;2022-07-18T01:22:42;14.40;99.90
18906;DHT22;9585;51.018;4.282;2022-07-18T01:25:09;14.40;99.90
18906;DHT22;9585;51.018;4.282;2022-07-18T01:27:37;14.30;99.90
18906;DHT22;9585;51.018;4.282;2022-07-18T01:30:05;14.30;99.90
18906;DHT22;9585;51.018;4.282;2022-07-18T01:32:33;14.30;99.90
18906;DHT22;9585;51.018;4.282;2022-07-18T01:35:00;14.20;99.90
18906;DHT22;9585;51.018;4.282;2022-07-18T01:37:28;14.20;99.90
18906;DHT22;9585;51.018;4.282;2022-07-18T01:39:57;14.20;99.90
18906;DHT22;9585;51.018;4.282;2022-07-18T01:42:24;14.20;99.90
18906;DHT22;9585;51.018;4.282;2022-07-18T01:44:51;14.20;99.90
18906;DHT22;9585;51.018;4.282;2022-07-18T01:47:19;14.20;99.90
18906;DHT22;9585;51.018;4.282;2022-07-18T01:49:47;14.20;99.90
18906;DHT22;9585;51.018;4.282;2022-07-18T01:52:14;14.10;99.90
18906;DHT22;9585;51.018;4.282;2022-07-18T01:54:42;14.10;99.90
18906;DHT22;9585;51.018;4.282;2022-07-18T01:57:11;14.10;99.90
18906;DHT22;9585;51.018;4.282;2022-07-18T01:59:39;14.10;99.90
18906;DHT22;9585;51.018;4.282;2022-07-18T02:02:06;14.10;99.90
18906;DHT22;9585;51.018;4.282;2022-07-18T02:04:33;14.00;99.90
18906;DHT22;9585;51.018;4.282;2022-07-18T02:07:18;14.00;99.90
18906;DHT22;9585;51.018;4.282;2022-07-18T02:09:46;14.00;99.90
18906;DHT22;9585;51.018;4.282;2022-07-18T02:12:14;13.90;99.90
18906;DHT22;9585;51.018;4.282;2022-07-18T02:14:42;13.90;99.90
18906;DHT22;9585;51.018;4.282;2022-07-18T02:17:09;13.90;99.90
18906;DHT22;9585;51.018;4.282;2022-07-18T02:19:37;13.80;99.90
18906;DHT22;9585;51.018;4.282;2022-07-18T02:22:04;13.70;99.90
18906;DHT22;9585;51.018;4.282;2022-07-18T02:24:31;13.70;99.90
18906;DHT22;9585;51.018;4.282;2022-07-18T02:26:59;13.70;99.90
18906;DHT22;9585;51.018;4.282;2022-07-18T02:29:28;13.70;99.90
18906;DHT22;9585;51.018;4.282;2022-07-18T02:31:55;13.70;99.90
18906;DHT22;9585;51.018;4.282;2022-07-18T02:34:23;13.70;99.90
18906;DHT22;9585;51.018;4.282;2022-07-18T02:36:50;13.70;99.90
18906;DHT22;9585;51.018;4.282;2022-07-18T02:39:18;13.70;99.90
18906;DHT22;9585;51.018;4.282;2022-07-18T02:41:46;13.70;99.90
18906;DHT22;9585;51.018;4.282;2022-07-18T02:44:14;13.70;99.90
18906;DHT22;9585;51.018;4.282;2022-07-18T02:46:43;13.70;99.90
18906;DHT22;9585;51.018;4.282;2022-07-18T02:49:11;13.60;99.90
18906;DHT22;9585;51.018;4.282;2022-07-18T02:51:53;13.60;99.90
18906;DHT22;9585;51.018;4.282;2022-07-18T02:54:21;13.50;99.90
18906;DHT22;9585;51.018;4.282;2022-07-18T02:56:49;13.50;99.90
18906;DHT22;9585;51.018;4.282;2022-07-18T02:59:16;13.50;99.90
18906;DHT22;9585;51.018;4.282;2022-07-18T03:01:45;13.50;99.90
18906;DHT22;9585;51.018;4.282;2022-07-18T03:04:14;13.50;99.90
18906;DHT22;9585;51.018;4.282;2022-07-18T03:06:42;13.50;99.90
18906;DHT22;9585;51.018;4.282;2022-07-18T03:09:09;13.50;99.90
18906;DHT22;9585;51.018;4.282;2022-07-18T03:11:36;13.50;99.90
18906;DHT22;9585;51.018;4.282;2022-07-18T03:14:04;13.50;99.90
18906;DHT22;9585;51.018;4.282;2022-07-18T03:16:31;13.50;99.90
18906;DHT22;9585;51.018;4.282;2022-07-18T03:19:00;13.50;99.90
18906;DHT22;9585;51.018;4.282;2022-07-18T03:21:28;13.50;99.90
18906;DHT22;9585;51.018;4.282;2022-07-18T03:23:56;13.40;99.90
18906;DHT22;9585;51.018;4.282;2022-07-18T03:26:23;13.30;99.90
18906;DHT22;9585;51.018;4.282;2022-07-18T03:28:50;13.30;99.90
18906;DHT22;9585;51.018;4.282;2022-07-18T03:31:18;13.20;99.90
18906;DHT22;9585;51.018;4.282;2022-07-18T03:33:45;13.20;99.90
18906;DHT22;9585;51.018;4.282;2022-07-18T03:36:14;13.20;99.90
18906;DHT22;9585;51.018;4.282;2022-07-18T03:38:41;13.20;99.90
18906;DHT22;9585;51.018;4.282;2022-07-18T03:41:09;13.20;99.90
18906;DHT22;9585;51.018;4.282;2022-07-18T03:43:37;13.20;99.90
18906;DHT22;9585;51.018;4.282;2022-07-18T03:46:05;13.20;99.90
18906;DHT22;9585;51.018;4.282;2022-07-18T03:48:32;13.10;99.90
18906;DHT22;9585;51.018;4.282;2022-07-18T03:51:01;13.10;99.90
18906;DHT22;9585;51.018;4.282;2022-07-18T03:53:30;13.20;99.90
18906;DHT22;9585;51.018;4.282;2022-07-18T03:55:57;13.10;99.90
18906;DHT22;9585;51.018;4.282;2022-07-18T03:58:24;13.10;99.90
18906;DHT22;9585;51.018;4.282;2022-07-18T04:00:52;13.10;99.90
18906;DHT22;9585;51.018;4.282;2022-07-18T04:03:19;13.10;99.90
18906;DHT22;9585;51.018;4.282;2022-07-18T04:05:46;13.10;99.90
18906;DHT22;9585;51.018;4.282;2022-07-18T04:08:13;13.20;99.90
18906;DHT22;9585;51.018;4.282;2022-07-18T04:10:42;13.20;99.90
18906;DHT22;9585;51.018;4.282;2022-07-18T04:13:10;13.20;99.90
18906;DHT22;9585;51.018;4.282;2022-07-18T04:15:38;13.20;99.90
18906;DHT22;9585;51.018;4.282;2022-07-18T04:18:06;13.20;99.90
18906;DHT22;9585;51.018;4.282;2022-07-18T04:20:34;13.20;99.90
18906;DHT22;9585;51.018;4.282;2022-07-18T04:23:04;13.20;99.90
18906;DHT22;9585;51.018;4.282;2022-07-18T04:25:35;13.30;99.90
18906;DHT22;9585;51.018;4.282;2022-07-18T04:28:04;13.30;99.90
18906;DHT22;9585;51.018;4.282;2022-07-18T04:30:32;13.30;99.90
18906;DHT22;9585;51.018;4.282;2022-07-18T04:33:02;13.40;99.90
18906;DHT22;9585;51.018;4.282;2022-07-18T04:35:30;13.40;99.90
18906;DHT22;9585;51.018;4.282;2022-07-18T04:37:58;13.50;99.90
18906;DHT22;9585;51.018;4.282;2022-07-18T04:40:25;13.60;99.90
18906;DHT22;9585;51.018;4.282;2022-07-18T04:42:53;13.60;99.90
18906;DHT22;9585;51.018;4.282;2022-07-18T04:45:22;13.70;99.90
18906;DHT22;9585;51.018;4.282;2022-07-18T04:47:50;13.70;99.90
18906;DHT22;9585;51.018;4.282;2022-07-18T04:50:18;13.80;99.90
18906;DHT22;9585;51.018;4.282;2022-07-18T04:52:46;14.00;99.90
18906;DHT22;9585;51.018;4.282;2022-07-18T04:55:15;14.20;99.90
18906;DHT22;9585;51.018;4.282;2022-07-18T04:57:43;14.30;99.90
18906;DHT22;9585;51.018;4.282;2022-07-18T05:00:12;14.40;99.90
18906;DHT22;9585;51.018;4.282;2022-07-18T05:02:42;14.50;99.90
18906;DHT22;9585;51.018;4.282;2022-07-18T05:05:12;14.80;99.90
18906;DHT22;9585;51.018;4.282;2022-07-18T05:07:40;15.20;99.90
18906;DHT22;9585;51.018;4.282;2022-07-18T05:10:09;15.60;99.90
18906;DHT22;9585;51.018;4.282;2022-07-18T05:12:38;15.90;99.90
18906;DHT22;9585;51.018;4.282;2022-07-18T05:15:07;16.10;99.90
18906;DHT22;9585;51.018;4.282;2022-07-18T05:17:34;16.30;99.90
18906;DHT22;9585;51.018;4.282;2022-07-18T05:20:04;16.30;99.90
18906;DHT22;9585;51.018;4.282;2022-07-18T05:22:32;16.40;99.90
18906;DHT22;9585;51.018;4.282;2022-07-18T05:24:59;16.60;99.90
18906;DHT22;9585;51.018;4.282;2022-07-18T05:27:27;16.90;99.90
18906;DHT22;9585;51.018;4.282;2022-07-18T05:29:54;17.40;99.90
18906;DHT22;9585;51.018;4.282;2022-07-18T05:32:21;18.00;99.90
18906;DHT22;9585;51.018;4.282;2022-07-18T05:34:49;19.00;99.90
18906;DHT22;9585;51.018;4.282;2022-07-18T05:37:18;19.90;99.90
18906;DHT22;9585;51.018;4.282;2022-07-18T05:39:46;20.80;99.90
18906;DHT22;9585;51.018;4.282;2022-07-18T05:42:13;21.80;99.90
18906;DHT22;9585;51.018;4.282;2022-07-18T05:44:41;22.90;99.90
18906;DHT22;9585;51.018;4.282;2022-07-18T05:47:09;24.10;99.90
18906;DHT22;9585;51.018;4.282;2022-07-18T05:49:36;25.10;99.90
18906;DHT22;9585;51.018;4.282;2022-07-18T05:52:04;25.90;99.90
18906;DHT22;9585;51.018;4.282;2022-07-18T05:54:34;26.60;99.90
18906;DHT22;9585;51.018;4.282;2022-07-18T05:57:01;26.90;99.90
18906;DHT22;9585;51.018;4.282;2022-07-18T05:59:29;26.60;99.90
18906;DHT22;9585;51.018;4.282;2022-07-18T06:01:56;25.90;99.90
18906;DHT22;9585;51.018;4.282;2022-07-18T06:04:24;25.60;99.90
18906;DHT22;9585;51.018;4.282;2022-07-18T06:06:51;26.20;99.90
18906;DHT22;9585;51.018;4.282;2022-07-18T06:09:18;26.90;99.90
18906;DHT22;9585;51.018;4.282;2022-07-18T06:11:47;27.60;99.90
18906;DHT22;9585;51.018;4.282;2022-07-18T06:14:15;28.00;99.90
18906;DHT22;9585;51.018;4.282;2022-07-18T06:16:42;28.50;99.90
18906;DHT22;9585;51.018;4.282;2022-07-18T06:19:09;28.90;99.90
18906;DHT22;9585;51.018;4.282;2022-07-18T06:21:37;29.10;99.90
18906;DHT22;9585;51.018;4.282;2022-07-18T06:24:05;29.70;99.90
18906;DHT22;9585;51.018;4.282;2022-07-18T06:26:32;30.20;99.90
18906;DHT22;9585;51.018;4.282;2022-07-18T06:29:01;30.30;99.20
18906;DHT22;9585;51.018;4.282;2022-07-18T06:31:29;30.60;98.70
18906;DHT22;9585;51.018;4.282;2022-07-18T06:33:56;31.10;98.50
18906;DHT22;9585;51.018;4.282;2022-07-18T06:36:24;31.50;97.20
18906;DHT22;9585;51.018;4.282;2022-07-18T06:38:51;32.10;96.90
18906;DHT22;9585;51.018;4.282;2022-07-18T06:41:19;32.60;96.60
18906;DHT22;9585;51.018;4.282;2022-07-18T06:43:46;32.60;95.60
18906;DHT22;9585;51.018;4.282;2022-07-18T06:46:15;32.90;94.80
18906;DHT22;9585;51.018;4.282;2022-07-18T06:48:43;33.20;94.90
18906;DHT22;9585;51.018;4.282;2022-07-18T06:51:12;33.10;93.80
18906;DHT22;9585;51.018;4.282;2022-07-18T06:53:40;33.30;94.10
18906;DHT22;9585;51.018;4.282;2022-07-18T06:56:07;33.40;93.20
18906;DHT22;9585;51.018;4.282;2022-07-18T06:58:35;33.40;93.10
18906;DHT22;9585;51.018;4.282;2022-07-18T07:01:02;33.90;93.70
18906;DHT22;9585;51.018;4.282;2022-07-18T07:03:31;34.00;93.50
18906;DHT22;9585;51.018;4.282;2022-07-18T07:05:59;34.20;93.70
18906;DHT22;9585;51.018;4.282;2022-07-18T07:08:26;34.30;93.70
18906;DHT22;9585;51.018;4.282;2022-07-18T07:10:54;34.50;93.30
18906;DHT22;9585;51.018;4.282;2022-07-18T07:13:21;34.70;93.10
18906;DHT22;9585;51.018;4.282;2022-07-18T07:15:49;35.00;92.70
18906;DHT22;9585;51.018;4.282;2022-07-18T07:18:16;34.60;91.80
18906;DHT22;9585;51.018;4.282;2022-07-18T07:20:47;34.80;92.40
18906;DHT22;9585;51.018;4.282;2022-07-18T07:23:14;34.70;91.70
18906;DHT22;9585;51.018;4.282;2022-07-18T07:25:43;35.00;92.30
18906;DHT22;9585;51.018;4.282;2022-07-18T07:28:10;35.40;91.80
18906;DHT22;9585;51.018;4.282;2022-07-18T07:30:38;35.40;91.50
18906;DHT22;9585;51.018;4.282;2022-07-18T07:33:07;35.50;91.40
18906;DHT22;9585;51.018;4.282;2022-07-18T07:35:35;35.70;91.50
18906;DHT22;9585;51.018;4.282;2022-07-18T07:38:04;35.60;90.90
18906;DHT22;9585;51.018;4.282;2022-07-18T07:40:31;35.40;90.90
18906;DHT22;9585;51.018;4.282;2022-07-18T07:43:06;35.50;91.40
18906;DHT22;9585;51.018;4.282;2022-07-18T07:45:35;35.70;91.20
18906;DHT22;9585;51.018;4.282;2022-07-18T07:48:04;35.70;91.40
18906;DHT22;9585;51.018;4.282;2022-07-18T07:50:31;35.70;91.20
18906;DHT22;9585;51.018;4.282;2022-07-18T07:52:59;35.90;91.30
18906;DHT22;9585;51.018;4.282;2022-07-18T07:55:28;36.30;90.70
18906;DHT22;9585;51.018;4.282;2022-07-18T07:57:56;36.20;90.60
18906;DHT22;9585;51.018;4.282;2022-07-18T08:00:23;36.40;91.00
18906;DHT22;9585;51.018;4.282;2022-07-18T08:02:52;36.80;91.10
18906;DHT22;9585;51.018;4.282;2022-07-18T08:05:20;37.00;90.40
18906;DHT22;9585;51.018;4.282;2022-07-18T08:07:47;37.30;89.10
18906;DHT22;9585;51.018;4.282;2022-07-18T08:10:15;37.00;87.10
18906;DHT22;9585;51.018;4.282;2022-07-18T08:12:44;37.20;87.40
18906;DHT22;9585;51.018;4.282;2022-07-18T08:15:12;37.60;87.40
18906;DHT22;9585;51.018;4.282;2022-07-18T08:17:39;37.90;87.90
18906;DHT22;9585;51.018;4.282;2022-07-18T08:20:08;37.80;86.50
18906;DHT22;9585;51.018;4.282;2022-07-18T08:22:37;37.80;85.30
18906;DHT22;9585;51.018;4.282;2022-07-18T08:25:18;37.90;85.40
18906;DHT22;9585;51.018;4.282;2022-07-18T08:27:48;37.40;84.30
18906;DHT22;9585;51.018;4.282;2022-07-18T08:30:15;37.10;83.60
18906;DHT22;9585;51.018;4.282;2022-07-18T08:32:43;37.20;85.30
18906;DHT22;9585;51.018;4.282;2022-07-18T08:35:17;37.70;85.50
18906;DHT22;9585;51.018;4.282;2022-07-18T08:37:53;37.60;85.50
18906;DHT22;9585;51.018;4.282;2022-07-18T08:40:21;38.10;83.30
18906;DHT22;9585;51.018;4.282;2022-07-18T08:42:51;38.00;84.00
18906;DHT22;9585;51.018;4.282;2022-07-18T08:45:20;38.00;83.10
18906;DHT22;9585;51.018;4.282;2022-07-18T08:47:48;37.80;82.10
18906;DHT22;9585;51.018;4.282;2022-07-18T08:50:19;37.40;82.10
18906;DHT22;9585;51.018;4.282;2022-07-18T08:52:46;37.70;83.70
18906;DHT22;9585;51.018;4.282;2022-07-18T08:55:14;37.90;82.50
18906;DHT22;9585;51.018;4.282;2022-07-18T08:57:42;37.70;80.90
18906;DHT22;9585;51.018;4.282;2022-07-18T09:00:12;37.80;81.50
18906;DHT22;9585;51.018;4.282;2022-07-18T09:02:39;37.50;82.40
18906;DHT22;9585;51.018;4.282;2022-07-18T09:05:18;37.60;83.50
18906;DHT22;9585;51.018;4.282;2022-07-18T09:07:45;37.50;82.20
18906;DHT22;9585;51.018;4.282;2022-07-18T09:10:13;37.50;84.20
18906;DHT22;9585;51.018;4.282;2022-07-18T09:12:55;37.50;83.00
18906;DHT22;9585;51.018;4.282;2022-07-18T09:15:25;37.70;84.70
18906;DHT22;9585;51.018;4.282;2022-07-18T09:17:56;37.80;83.90
18906;DHT22;9585;51.018;4.282;2022-07-18T09:20:23;37.80;81.30
18906;DHT22;9585;51.018;4.282;2022-07-18T09:22:51;37.50;81.20
18906;DHT22;9585;51.018;4.282;2022-07-18T09:25:19;37.30;80.50
18906;DHT22;9585;51.018;4.282;2022-07-18T09:27:48;36.90;80.40
18906;DHT22;9585;51.018;4.282;2022-07-18T09:30:26;36.50;81.00
18906;DHT22;9585;51.018;4.282;2022-07-18T09:33:06;36.20;81.20
18906;DHT22;9585;51.018;4.282;2022-07-18T09:35:35;35.60;82.70
18906;DHT22;9585;51.018;4.282;2022-07-18T09:38:04;35.30;84.40
18906;DHT22;9585;51.018;4.282;2022-07-18T09:40:34;35.10;82.80
18906;DHT22;9585;51.018;4.282;2022-07-18T09:43:03;34.60;84.30
18906;DHT22;9585;51.018;4.282;2022-07-18T09:45:33;34.20;84.20
18906;DHT22;9585;51.018;4.282;2022-07-18T09:48:02;34.00;83.20
18906;DHT22;9585;51.018;4.282;2022-07-18T09:50:32;33.80;83.60
18906;DHT22;9585;51.018;4.282;2022-07-18T09:53:05;33.60;84.70
18906;DHT22;9585;51.018;4.282;2022-07-18T09:55:33;33.50;86.30
18906;DHT22;9585;51.018;4.282;2022-07-18T09:58:03;33.50;85.80
18906;DHT22;9585;51.018;4.282;2022-07-18T10:00:35;33.40;85.70
18906;DHT22;9585;51.018;4.282;2022-07-18T10:03:04;33.20;84.20
18906;DHT22;9585;51.018;4.282;2022-07-18T10:05:33;33.00;85.10
18906;DHT22;9585;51.018;4.282;2022-07-18T10:08:02;32.90;84.70
18906;DHT22;9585;51.018;4.282;2022-07-18T10:10:30;32.70;84.10
18906;DHT22;9585;51.018;4.282;2022-07-18T10:12:59;32.60;84.40
18906;DHT22;9585;51.018;4.282;2022-07-18T10:15:28;32.80;87.90
18906;DHT22;9585;51.018;4.282;2022-07-18T10:17:58;32.80;85.40
18906;DHT22;9585;51.018;4.282;2022-07-18T10:20:28;33.00;85.80
18906;DHT22;9585;51.018;4.282;2022-07-18T10:22:59;32.80;84.00
18906;DHT22;9585;51.018;4.282;2022-07-18T10:25:28;32.80;84.90
18906;DHT22;9585;51.018;4.282;2022-07-18T10:28:04;32.70;84.90
18906;DHT22;9585;51.018;4.282;2022-07-18T10:30:34;32.70;84.70
18906;DHT22;9585;51.018;4.282;2022-07-18T10:36:01;33.00;88.30
18906;DHT22;9585;51.018;4.282;2022-07-18T10:38:29;33.00;85.20
18906;DHT22;9585;51.018;4.282;2022-07-18T10:41:09;33.00;84.90
18906;DHT22;9585;51.018;4.282;2022-07-18T10:43:39;33.10;86.60
18906;DHT22;9585;51.018;4.282;2022-07-18T10:46:08;33.10;88.20
18906;DHT22;9585;51.018;4.282;2022-07-18T10:48:56;33.00;85.50
18906;DHT22;9585;51.018;4.282;2022-07-18T10:51:34;33.00;84.80
18906;DHT22;9585;51.018;4.282;2022-07-18T10:54:10;33.10;86.80
18906;DHT22;9585;51.018;4.282;2022-07-18T10:57:06;33.20;84.00
18906;DHT22;9585;51.018;4.282;2022-07-18T10:59:37;33.20;83.70
18906;DHT22;9585;51.018;4.282;2022-07-18T11:02:06;33.00;84.70
18906;DHT22;9585;51.018;4.282;2022-07-18T11:04:42;33.20;86.50
18906;DHT22;9585;51.018;4.282;2022-07-18T11:07:11;33.10;83.20
18906;DHT22;9585;51.018;4.282;2022-07-18T11:09:41;33.20;83.20
18906;DHT22;9585;51.018;4.282;2022-07-18T11:12:21;33.30;83.20
18906;DHT22;9585;51.018;4.282;2022-07-18T11:15:12;33.50;84.20
18906;DHT22;9585;51.018;4.282;2022-07-18T11:17:57;33.50;86.30
18906;DHT22;9585;51.018;4.282;2022-07-18T11:20:38;33.70;84.90
18906;DHT22;9585;51.018;4.282;2022-07-18T11:23:17;33.70;83.40
18906;DHT22;9585;51.018;4.282;2022-07-18T11:25:45;33.80;82.80
18906;DHT22;9585;51.018;4.282;2022-07-18T11:28:13;33.70;83.60
18906;DHT22;9585;51.018;4.282;2022-07-18T11:30:42;33.60;82.40
18906;DHT22;9585;51.018;4.282;2022-07-18T11:33:23;33.50;82.50
18906;DHT22;9585;51.018;4.282;2022-07-18T11:35:53;33.50;81.40
18906;DHT22;9585;51.018;4.282;2022-07-18T11:38:28;33.60;81.10
18906;DHT22;9585;51.018;4.282;2022-07-18T11:40:56;33.60;80.70
18906;DHT22;9585;51.018;4.282;2022-07-18T11:43:24;33.60;83.50
18906;DHT22;9585;51.018;4.282;2022-07-18T11:46:02;33.60;82.90
18906;DHT22;9585;51.018;4.282;2022-07-18T11:48:30;33.60;82.70
18906;DHT22;9585;51.018;4.282;2022-07-18T11:50:59;33.60;81.90
18906;DHT22;9585;51.018;4.282;2022-07-18T11:53:27;33.50;80.90
18906;DHT22;9585;51.018;4.282;2022-07-18T11:55:55;33.60;84.30
18906;DHT22;9585;51.018;4.282;2022-07-18T11:58:23;33.70;81.70
18906;DHT22;9585;51.018;4.282;2022-07-18T12:00:50;33.70;80.60
18906;DHT22;9585;51.018;4.282;2022-07-18T12:03:19;33.70;82.50
18906;DHT22;9585;51.018;4.282;2022-07-18T12:05:51;33.90;79.90
18906;DHT22;9585;51.018;4.282;2022-07-18T12:08:28;33.70;79.50
18906;DHT22;9585;51.018;4.282;2022-07-18T12:11:06;33.70;81.00
18906;DHT22;9585;51.018;4.282;2022-07-18T12:13:45;33.70;79.90
18906;DHT22;9585;51.018;4.282;2022-07-18T12:16:27;33.80;79.70
18906;DHT22;9585;51.018;4.282;2022-07-18T12:18:56;33.80;82.80
18906;DHT22;9585;51.018;4.282;2022-07-18T12:21:38;33.90;80.30
18906;DHT22;9585;51.018;4.282;2022-07-18T12:24:29;34.00;80.60
18906;DHT22;9585;51.018;4.282;2022-07-18T12:27:10;34.00;78.80
18906;DHT22;9585;51.018;4.282;2022-07-18T12:30:03;33.90;80.30
18906;DHT22;9585;51.018;4.282;2022-07-18T12:32:37;34.00;81.40
18906;DHT22;9585;51.018;4.282;2022-07-18T12:35:07;33.80;80.40
18906;DHT22;9585;51.018;4.282;2022-07-18T12:37:35;33.90;80.30
18906;DHT22;9585;51.018;4.282;2022-07-18T12:40:06;34.00;81.10
18906;DHT22;9585;51.018;4.282;2022-07-18T12:42:35;34.20;80.10
18906;DHT22;9585;51.018;4.282;2022-07-18T12:45:04;34.20;81.00
18906;DHT22;9585;51.018;4.282;2022-07-18T12:47:32;34.10;78.60
18906;DHT22;9585;51.018;4.282;2022-07-18T12:49:59;34.00;78.00
18906;DHT22;9585;51.018;4.282;2022-07-18T12:52:27;34.00;78.30
18906;DHT22;9585;51.018;4.282;2022-07-18T12:54:54;33.90;77.40
18906;DHT22;9585;51.018;4.282;2022-07-18T12:57:23;33.70;77.50
18906;DHT22;9585;51.018;4.282;2022-07-18T12:59:51;33.60;78.60
18906;DHT22;9585;51.018;4.282;2022-07-18T13:02:18;33.60;79.20
18906;DHT22;9585;51.018;4.282;2022-07-18T13:04:45;33.70;78.70
18906;DHT22;9585;51.018;4.282;2022-07-18T13:07:13;33.80;79.00
18906;DHT22;9585;51.018;4.282;2022-07-18T13:09:40;33.90;76.60
18906;DHT22;9585;51.018;4.282;2022-07-18T13:12:08;34.00;77.10
18906;DHT22;9585;51.018;4.282;2022-07-18T13:14:37;33.90;78.20
18906;DHT22;9585;51.018;4.282;2022-07-18T13:17:04;34.00;77.50
18906;DHT22;9585;51.018;4.282;2022-07-18T13:19:31;34.10;77.60
18906;DHT22;9585;51.018;4.282;2022-07-18T13:21:59;34.00;75.60
18906;DHT22;9585;51.018;4.282;2022-07-18T13:24:26;34.10;76.20
18906;DHT22;9585;51.018;4.282;2022-07-18T13:26:54;34.10;76.60
18906;DHT22;9585;51.018;4.282;2022-07-18T13:29:21;34.10;76.60
18906;DHT22;9585;51.018;4.282;2022-07-18T13:31:50;34.20;77.60
18906;DHT22;9585;51.018;4.282;2022-07-18T13:34:19;33.70;75.00
18906;DHT22;9585;51.018;4.282;2022-07-18T13:36:51;33.60;76.20
18906;DHT22;9585;51.018;4.282;2022-07-18T13:39:19;33.70;76.70
18906;DHT22;9585;51.018;4.282;2022-07-18T13:41:47;33.90;77.30
18906;DHT22;9585;51.018;4.282;2022-07-18T13:44:16;34.00;77.10
18906;DHT22;9585;51.018;4.282;2022-07-18T13:46:43;34.00;76.50
18906;DHT22;9585;51.018;4.282;2022-07-18T13:49:12;34.00;74.90
18906;DHT22;9585;51.018;4.282;2022-07-18T13:51:42;34.10;75.60
18906;DHT22;9585;51.018;4.282;2022-07-18T13:54:09;34.00;75.60
18906;DHT22;9585;51.018;4.282;2022-07-18T13:56:37;34.00;75.90
18906;DHT22;9585;51.018;4.282;2022-07-18T13:59:04;34.10;75.00
18906;DHT22;9585;51.018;4.282;2022-07-18T14:01:31;34.10;75.10
18906;DHT22;9585;51.018;4.282;2022-07-18T14:03:59;34.10;73.80
18906;DHT22;9585;51.018;4.282;2022-07-18T14:06:28;34.10;73.20
18906;DHT22;9585;51.018;4.282;2022-07-18T14:08:55;34.10;73.50
18906;DHT22;9585;51.018;4.282;2022-07-18T14:11:22;34.10;74.80
18906;DHT22;9585;51.018;4.282;2022-07-18T14:13:50;34.10;74.10
18906;DHT22;9585;51.018;4.282;2022-07-18T14:16:17;34.10;73.60
18906;DHT22;9585;51.018;4.282;2022-07-18T14:18:45;34.00;73.20
18906;DHT22;9585;51.018;4.282;2022-07-18T14:21:12;33.90;74.30
18906;DHT22;9585;51.018;4.282;2022-07-18T14:23:41;33.90;75.80
18906;DHT22;9585;51.018;4.282;2022-07-18T14:26:08;34.00;75.20
18906;DHT22;9585;51.018;4.282;2022-07-18T14:28:35;34.10;75.00
18906;DHT22;9585;51.018;4.282;2022-07-18T14:31:03;33.80;71.20
18906;DHT22;9585;51.018;4.282;2022-07-18T14:33:30;33.80;72.30
18906;DHT22;9585;51.018;4.282;2022-07-18T14:35:57;33.90;72.80
18906;DHT22;9585;51.018;4.282;2022-07-18T14:38:25;33.90;72.00
18906;DHT22;9585;51.018;4.282;2022-07-18T14:40:53;33.80;73.90
18906;DHT22;9585;51.018;4.282;2022-07-18T14:43:21;33.80;73.40
18906;DHT22;9585;51.018;4.282;2022-07-18T14:45:48;33.80;74.50
18906;DHT22;9585;51.018;4.282;2022-07-18T14:48:17;33.90;73.70
18906;DHT22;9585;51.018;4.282;2022-07-18T14:50:45;33.90;74.70
18906;DHT22;9585;51.018;4.282;2022-07-18T14:53:12;34.00;75.50
18906;DHT22;9585;51.018;4.282;2022-07-18T14:55:39;34.00;74.40
18906;DHT22;9585;51.018;4.282;2022-07-18T14:58:08;34.00;75.80
18906;DHT22;9585;51.018;4.282;2022-07-18T15:00:36;34.00;75.10
18906;DHT22;9585;51.018;4.282;2022-07-18T15:03:03;34.00;75.70
18906;DHT22;9585;51.018;4.282;2022-07-18T15:05:31;34.10;76.40
18906;DHT22;9585;51.018;4.282;2022-07-18T15:07:59;34.20;76.90
18906;DHT22;9585;51.018;4.282;2022-07-18T15:10:26;34.10;73.90
18906;DHT22;9585;51.018;4.282;2022-07-18T15:12:53;34.10;71.60
18906;DHT22;9585;51.018;4.282;2022-07-18T15:15:22;34.00;73.30
18906;DHT22;9585;51.018;4.282;2022-07-18T15:17:50;34.00;74.70
18906;DHT22;9585;51.018;4.282;2022-07-18T15:20:17;34.00;74.30
18906;DHT22;9585;51.018;4.282;2022-07-18T15:22:45;34.00;74.20
18906;DHT22;9585;51.018;4.282;2022-07-18T15:25:12;33.90;75.30
18906;DHT22;9585;51.018;4.282;2022-07-18T15:27:39;33.90;73.00
18906;DHT22;9585;51.018;4.282;2022-07-18T15:30:08;33.80;74.50
18906;DHT22;9585;51.018;4.282;2022-07-18T15:32:37;33.80;75.20
18906;DHT22;9585;51.018;4.282;2022-07-18T15:35:05;33.80;75.20
18906;DHT22;9585;51.018;4.282;2022-07-18T15:37:32;33.90;74.50
18906;DHT22;9585;51.018;4.282;2022-07-18T15:40:00;33.90;74.10
18906;DHT22;9585;51.018;4.282;2022-07-18T15:42:27;34.00;73.20
18906;DHT22;9585;51.018;4.282;2022-07-18T15:44:54;34.00;72.80
18906;DHT22;9585;51.018;4.282;2022-07-18T15:47:22;33.90;73.70
18906;DHT22;9585;51.018;4.282;2022-07-18T15:49:50;33.90;75.60
18906;DHT22;9585;51.018;4.282;2022-07-18T15:52:18;33.90;74.70
18906;DHT22;9585;51.018;4.282;2022-07-18T15:54:45;33.90;75.40
18906;DHT22;9585;51.018;4.282;2022-07-18T15:57:15;33.90;76.40
18906;DHT22;9585;51.018;4.282;2022-07-18T15:59:42;33.90;76.20